Vriezenveen, Netherlands
Current Conditions -  °F | °C
As of 5:55 AM on Sunday 23 Nov 2014 (Local Time) from EHDL Reporting Station
Light Rain Light Rain  
Wind Chill: 45°   Ceiling: 8900
Heat Index: 48°   Visibility: 5mi
Dew Point: 46°   Wind: 8mph
Humidity: 93%   Direction: 160°SSE
Pressure: 30.03"   Gusts: NA
Location:  52.41°N, 6.62°E
Report Text: EHDL 230455Z AUTO 16007KT 8000 -RA FEW035 SCT070 BKN089 09/08 Q1017 RERA REDZ BLU
Loading
Personal Weather Stations






























Interactive Weather Map New forecast layout! Learn more

10-Day Weather Forecast

Advertisements
Track Severe Weather on mobile